Latest Weather Observations for Latrobe Valley

IDV60801

Issued at 11:36 am EDT Sunday 1 February 2015 (issued every 30 minutes, with the page automatically refreshed every 10 minutes)

About weather observations | Map of weather stations | Latest weather observations for VIC | Other Formats
Station Details ID: 085280 Name: LATROBE VALLEY AIRPORT Lat: -38.21 Lon: 146.47 Height: 55.7 m
Data from the previous 72 hours. | See also: Recent months at Latrobe Valley
Date/Time
EDT
Temp
°C
App
Temp
°C
Dew
Point
Rel
Hum
%
Delta-T
°C
Wind Press
QNH
hPa
Press
MSL
hPa
Rain
since 9 am
mm
Dir
 
Spd
km/h
Gust
km/h
Spd
kts
Gust
kts
01/11:30am 20.5 18.5 12.7 61 4.4 WNW 15 20 8 11 1012.6 1012.5 0.0
01/11:00am 20.0 18.5 13.2 65 3.9 SW 13 19 7 10 1012.7 1012.6 0.0
01/10:30am 19.0 17.2 13.2 69 3.3 WSW 15 22 8 12 1012.7 1012.6 0.0
01/10:00am 17.5 15.1 12.6 73 2.7 W 17 22 9 12 1012.7 1012.6 0.0
01/09:51am 17.4 15.0 12.5 73 2.7 WNW 17 22 9 12 1012.7 1012.6 0.0
01/09:30am 17.3 14.9 12.8 75 2.5 W 17 22 9 12 1012.7 1012.6 0.0
01/09:00am 16.9 14.2 13.4 80 2.0 W 20 24 11 13 1012.6 1012.5 0.0
01/08:30am 15.2 12.4 13.2 88 1.1 W 20 30 11 16 1012.5 1012.4 0.0
01/08:19am 15.4 12.9 13.4 88 1.1 W 19 24 10 13 1012.2 1012.1 0.0
01/08:00am 15.0 13.4 13.9 93 0.6 W 15 19 8 10 1012.1 1012.0 0.0
01/07:30am 13.6 11.0 13.1 97 0.3 W 19 26 10 14 1011.7 1011.6 0.0
01/07:00am 13.3 10.7 13.1 99 0.1 WNW 19 26 10 14 1011.6 1011.5 0.0
01/06:30am 12.9 9.9 12.7 99 0.1 WNW 20 28 11 15 1011.4 1011.3 0.0
01/05:30am 13.0 10.1 12.8 99 0.1 W 20 24 11 13 1011.0 1010.9 0.0
01/05:00am 13.1 10.3 12.6 97 0.3 WNW 19 24 10 13 1011.0 1010.9 0.0
01/04:30am 13.5 10.5 12.7 95 0.4 W 20 28 11 15 1010.9 1010.8 0.0
01/04:00am 13.3 10.9 12.8 97 0.3 W 17 20 9 11 1011.0 1010.9 0.0
01/03:30am 13.5 11.2 13.0 97 0.3 WNW 17 20 9 11 1011.1 1011.0 0.0
01/03:00am 13.6 10.9 12.8 95 0.4 W 19 22 10 12 1011.2 1011.1 0.0
01/02:30am 13.6 11.2 12.7 94 0.5 W 17 20 9 11 1011.2 1011.1 0.0
01/02:00am 13.5 11.5 12.6 94 0.5 W 15 20 8 11 1011.4 1011.3 0.0
01/01:30am 13.5 11.3 12.2 92 0.7 W 15 19 8 10 1011.5 1011.4 0.0
01/01:00am 14.0 11.5 12.2 89 1.0 W 17 22 9 12 1011.5 1011.4 0.0
01/12:30am 14.4 12.2 12.1 86 1.2 W 15 20 8 11 1011.8 1011.7 0.0
01/12:00am 14.6 12.0 12.1 85 1.4 W 17 24 9 13 1012.0 1011.9 0.0
 
Date/Time
EDT
Temp
°C
App
Temp
°C
Dew
Point
Rel
Hum
%
Delta-T
°C
Wind Press
QNH
hPa
Press
MSL
hPa
Rain
since 9 am
mm
Dir
 
Spd
km/h
Gust
km/h
Spd
kts
Gust
kts
31/11:30pm 14.2 11.2 11.9 86 1.2 W 19 24 10 13 1012.1 1012.0 0.0
31/11:00pm 13.9 11.2 11.8 87 1.1 W 17 20 9 11 1012.3 1012.2 0.0
31/10:30pm 14.1 11.7 11.4 84 1.4 W 15 19 8 10 1012.5 1012.4 0.0
31/10:00pm 14.5 12.2 11.6 83 1.6 WSW 15 17 8 9 1012.3 1012.2 0.0
31/09:30pm 14.7 12.3 11.3 80 1.8 WSW 15 17 8 9 1012.1 1012.0 0.0
31/09:00pm 16.0 12.8 11.4 74 2.5 SW 19 22 10 12 1011.5 1011.4 0.0
31/08:30pm 17.6 14.2 11.4 67 3.4 SW 20 28 11 15 1011.2 1011.1 0.0
31/08:00pm 18.1 14.0 11.4 65 3.7 SW 24 30 13 16 1010.9 1010.8 0.0
31/07:30pm 18.7 15.1 11.8 64 3.8 SW 22 30 12 16 1010.6 1010.5 0.0
31/07:00pm 19.5 14.8 12.0 62 4.2 SW 28 35 15 19 1010.3 1010.2 0.0
31/06:30pm 19.7 15.8 12.0 61 4.3 WSW 24 35 13 19 1009.9 1009.8 0.0
31/06:00pm 19.9 16.4 12.2 61 4.3 WSW 22 32 12 17 1009.8 1009.7 0.0
31/05:30pm 19.3 18.0 13.7 70 3.2 WNW 13 17 7 9 1009.8 1009.7 0.0
31/05:00pm 18.5 16.0 14.0 75 2.6 WSW 20 28 11 15 1010.1 1010.0 0.0
31/04:30pm 19.1 16.1 13.7 71 3.1 WNW 22 32 12 17 1009.9 1009.8 0.0
31/04:00pm 19.4 15.3 13.8 70 3.2 NW 28 35 15 19 1009.7 1009.6 0.0
31/03:30pm 20.8 18.1 13.5 63 4.2 WNW 20 30 11 16 1009.6 1009.5 0.0
31/03:00pm 21.0 17.3 11.6 55 5.2 WSW 22 28 12 15 1009.7 1009.6 0.0
31/02:30pm 21.6 18.5 11.6 53 5.6 SW 19 24 10 13 1009.7 1009.6 0.0
31/02:00pm 21.5 18.8 11.8 54 5.4 WSW 17 22 9 12 1009.8 1009.7 0.0
31/01:30pm 20.8 18.8 11.4 55 5.2 WSW 13 22 7 12 1010.1 1010.0 0.0
31/01:00pm 21.7 19.4 11.7 53 5.6 W 15 22 8 12 1010.2 1010.1 0.0
31/12:30pm 20.6 18.5 11.2 55 5.2 SSW 13 22 7 12 1010.4 1010.3 0.0
31/12:00pm 19.9 18.3 11.7 59 4.6 W 11 19 6 10 1010.5 1010.4 0.0
31/11:30am 19.7 17.5 12.0 61 4.3 W 15 26 8 14 1010.6 1010.5 0.0
31/11:00am 19.0 16.3 11.8 63 4.0 WNW 17 24 9 13 1010.7 1010.6 0.0
31/10:30am 19.2 17.0 13.2 68 3.4 W 17 24 9 13 1010.9 1010.8 0.0
31/10:00am 17.1 14.2 12.4 74 2.6 WNW 19 24 10 13 1011.0 1010.9 0.0
31/09:30am 15.9 12.5 12.6 81 1.8 WNW 22 32 12 17 1011.1 1011.0 0.0
31/09:00am 14.6 11.6 12.5 87 1.1 WNW 20 24 11 13 1011.3 1011.2 0.0
31/08:30am 13.6 11.4 12.0 90 0.9 WNW 15 19 8 10 1011.5 1011.4 0.0
31/08:00am 12.9 10.1 11.5 91 0.7 WNW 17 20 9 11 1011.2 1011.1 0.0
31/07:30am 12.4 9.6 11.5 94 0.5 WNW 17 24 9 13 1010.8 1010.7 0.0
31/07:00am 11.1 8.9 10.9 99 0.1 W 13 15 7 8 1010.7 1010.6 0.0
31/06:30am 10.4 8.4 10.2 99 0.1 SW 11 13 6 7 1010.7 1010.6 0.0
31/06:00am 10.3 7.5 10.0 98 0.2 W 15 17 8 9 1010.5 1010.4 0.0
31/05:30am 10.1 6.9 9.9 99 0.1 WSW 17 20 9 11 1010.4 1010.3 0.0
31/05:00am 9.5 7.6 8.9 96 0.3 WSW 9 11 5 6 1010.3 1010.2 0.0
31/04:30am 10.9 9.6 10.1 95 0.4 WSW 7 11 4 6 1010.4 1010.3 0.0
31/04:00am 10.8 8.8 10.0 95 0.4 W 11 13 6 7 1010.5 1010.4 0.0
31/03:30am 11.1 9.1 10.0 93 0.6 WSW 11 13 6 7 1011.0 1010.9 0.0
31/03:00am 11.3 9.3 10.0 92 0.7 W 11 15 6 8 1011.1 1011.0 0.0
31/02:30am 11.2 8.7 9.6 90 0.8 W 13 17 7 9 1011.3 1011.2 0.0
31/02:00am 11.5 9.1 9.9 90 0.8 W 13 15 7 8 1011.6 1011.5 0.0
31/01:30am 11.4 8.9 9.7 89 0.9 W 13 17 7 9 1011.8 1011.7 0.0
31/01:00am 11.2 9.4 9.3 88 1.0 WNW 9 13 5 7 1012.1 1012.0 0.0
31/12:30am 12.2 9.8 9.9 86 1.2 WNW 13 15 7 8 1012.2 1012.1 0.0
31/12:00am 12.1 10.3 9.3 83 1.4 WSW 9 13 5 7 1012.4 1012.3 0.0
 
Date/Time
EDT
Temp
°C
App
Temp
°C
Dew
Point
Rel
Hum
%
Delta-T
°C
Wind Press
QNH
hPa
Press
MSL
hPa
Rain
since 9 am
mm
Dir
 
Spd
km/h
Gust
km/h
Spd
kts
Gust
kts
30/11:30pm 12.8 10.7 9.6 81 1.6 WSW 11 13 6 7 1012.6 1012.5 0.0
30/11:00pm 13.0 10.6 10.0 82 1.5 W 13 13 7 7 1012.7 1012.6 0.0
30/10:30pm 13.2 11.0 9.3 77 2.0 SW 11 15 6 8 1013.0 1012.9 0.0
30/10:00pm 14.0 11.3 9.0 72 2.5 SW 13 15 7 8 1013.0 1012.9 0.0
30/09:30pm 14.7 12.1 9.3 70 2.8 SSW 13 17 7 9 1013.0 1012.9 0.0
30/09:00pm 15.1 12.9 9.2 68 3.0 S 11 17 6 9 1012.9 1012.8 0.0
30/08:30pm 15.9 13.4 9.6 66 3.3 S 13 19 7 10 1012.8 1012.7 0.0
30/08:00pm 16.4 13.5 9.6 64 3.6 S 15 20 8 11 1012.8 1012.7 0.0
30/07:30pm 17.1 14.1 9.3 60 4.1 SSW 15 20 8 11 1012.7 1012.6 0.0
30/07:00pm 17.3 14.4 9.5 60 4.1 S 15 20 8 11 1012.5 1012.4 0.0
30/06:30pm 17.4 13.5 9.3 59 4.2 S 20 30 11 16 1012.4 1012.3 0.0
30/06:00pm 18.0 14.1 9.6 58 4.4 SW 20 28 11 15 1012.4 1012.3 0.0
30/05:30pm 18.8 14.3 10.1 57 4.7 SSW 24 35 13 19 1012.6 1012.5 0.0
30/05:00pm 19.9 15.6 10.6 55 5.1 SW 24 39 13 21 1012.7 1012.6 0.0
30/04:30pm 19.6 15.6 10.3 55 5.0 SW 22 32 12 17 1012.8 1012.7 0.0
30/04:00pm 18.9 13.7 10.2 57 4.7 SW 28 35 15 19 1013.1 1013.0 0.0
30/03:30pm 18.1 13.4 9.2 56 4.7 WSW 24 33 13 18 1013.4 1013.2 0.0
30/03:00pm 18.5 14.8 9.6 56 4.7 SW 19 28 10 15 1013.7 1013.5 0.0
30/02:30pm 17.7 14.0 9.6 59 4.3 WSW 19 24 10 13 1014.1 1013.9 0.0
30/02:00pm 17.5 14.9 9.2 58 4.3 SSW 13 19 7 10 1014.2 1014.0 0.0
30/01:30pm 17.7 15.5 9.3 58 4.4 S 11 15 6 8 1014.5 1014.3 0.0
30/01:00pm 18.0 15.0 9.4 57 4.5 SW 15 20 8 11 1014.8 1014.6 0.0
30/12:30pm 16.5 13.3 9.9 65 3.5 SSW 17 22 9 12 1015.1 1014.9 0.0
30/12:00pm 16.4 13.2 9.8 65 3.5 SW 17 22 9 12 1015.3 1015.1 0.0
30/11:30am 16.2 13.5 10.3 68 3.1 SW 15 28 8 15 1015.7 1015.5 0.0
30/11:00am 16.1 13.4 10.4 69 3.0 SW 15 20 8 11 1015.8 1015.6 0.0
30/10:30am 15.8 12.8 10.8 72 2.7 WSW 17 22 9 12 1015.9 1015.7 0.0
30/10:00am 14.9 13.3 11.5 80 1.8 WNW 11 15 6 8 1016.2 1016.0 0.0
30/09:30am 13.9 11.9 11.4 85 1.3 W 13 15 7 8 1016.4 1016.2 0.0
30/09:00am 13.7 12.1 11.7 88 1.1 W 11 15 6 8 1016.4 1016.2 2.2
30/08:30am 13.3 11.8 11.9 91 0.8 W 11 13 6 7 1016.4 1016.2 2.2
30/08:00am 12.7 11.8 12.5 99 0.1 W 9 11 5 6 1016.2 1016.0 2.2
30/07:30am 12.1 11.4 11.9 99 0.1 WSW 7 9 4 5 1016.0 1015.8 2.2
30/07:00am 11.2 10.2 11.0 99 0.1 W 7 9 4 5 1015.8 1015.6 2.2
30/06:30am 11.2 9.8 11.0 99 0.1 NW 9 11 5 6 1015.7 1015.5 2.2
30/06:00am 12.2 11.7 12.0 99 0.1 NW 6 7 3 4 1015.9 1015.7 2.2
30/05:30am 12.6 13.1 11.7 94 0.5 CALM 0 0 0 0 1016.0 1015.8 2.2
30/05:00am 12.8 11.8 12.3 97 0.3 SSW 9 13 5 7 1016.0 1015.8 2.2
30/04:30am 12.0 11.3 12.0 100 0.0 W 7 7 4 4 1016.1 1015.9 2.2
30/04:00am 12.2 11.1 12.0 99 0.1 W 9 11 5 6 1016.2 1016.0 2.2
30/03:46am 12.5 11.8 12.0 97 0.3 SSW 7 9 4 5 1016.3 1016.1 2.2
30/03:30am 12.4 11.4 12.2 99 0.1 S 9 15 5 8 1016.5 1016.3 2.0
30/03:28am 12.4 11.4 12.2 99 0.1 S 9 15 5 8 1016.6 1016.4 2.0
30/03:00am 11.8 10.7 11.8 100 0.0 WSW 9 13 5 7 1016.6 1016.4 2.0
30/02:30am 11.3 10.6 11.3 100 0.0 SW 6 9 3 5 1016.7 1016.5 2.0
30/02:00am 11.3 10.4 11.3 100 0.0 S 7 9 4 5 1017.0 1016.8 2.0
30/01:30am 11.2 11.2 11.2 100 0.0 S 2 6 1 3 1017.4 1017.2 2.0
30/01:00am 10.9 10.8 10.9 100 0.0 WSW 2 9 1 5 1017.7 1017.5 2.0
30/12:30am 11.6 12.1 11.6 100 0.0 CALM 0 0 0 0 1018.0 1017.8 2.0
30/12:00am 12.0 12.2 11.8 99 0.1 SSW 2 6 1 3 1018.3 1018.1 2.0
 
Date/Time
EDT
Temp
°C
App
Temp
°C
Dew
Point
Rel
Hum
%
Delta-T
°C
Wind Press
QNH
hPa
Press
MSL
hPa
Rain
since 9 am
mm
Dir
 
Spd
km/h
Gust
km/h
Spd
kts
Gust
kts
29/11:30pm 12.1 11.8 11.6 97 0.3 NNE 4 7 2 4 1018.6 1018.4 2.0
29/11:20pm 12.2 11.4 11.6 96 0.3 ENE 7 7 4 4 1018.7 1018.5 2.0
29/11:00pm 12.2 11.3 10.8 91 0.7 ESE 6 11 3 6 1018.9 1018.7 2.0
29/10:56pm 12.3 11.8 10.7 90 0.8 SSE 4 11 2 6 1019.0 1018.8 1.8
29/10:30pm 13.1 12.7 11.0 87 1.1 NE 4 7 2 4 1018.9 1018.7 1.2
29/10:00pm 12.9 12.3 10.4 85 1.3 NE 4 6 2 3 1019.0 1018.8 1.2
29/09:30pm 13.1 12.1 10.3 83 1.5 NE 6 7 3 4 1019.0 1018.8 1.2
29/09:00pm 13.9 12.6 10.1 78 2.0 E 7 11 4 6 1018.9 1018.7 1.2
29/08:30pm 14.6 13.2 11.0 79 1.9 SE 9 13 5 7 1018.8 1018.6 1.2
29/08:00pm 15.8 14.1 9.7 67 3.2 ESE 9 15 5 8 1018.7 1018.5 1.2
29/07:30pm 15.9 14.1 10.9 72 2.7 SE 11 15 6 8 1018.6 1018.4 1.2
29/07:00pm 16.3 12.8 10.2 67 3.2 SE 19 35 10 19 1018.5 1018.3 1.2
29/06:30pm 18.0 15.6 9.9 59 4.3 SE 13 20 7 11 1018.1 1017.9 1.2
29/06:00pm 17.2 15.0 10.8 66 3.4 SE 13 24 7 13 1018.2 1018.0 1.2
29/05:30pm 15.8 12.7 11.6 76 2.3 SE 19 32 10 17 1018.6 1018.4 1.2
29/05:00pm 18.3 16.0 11.6 65 3.7 SE 15 26 8 14 1018.5 1018.3 1.2
29/04:30pm 17.2 14.0 11.2 68 3.2 SE 19 30 10 16 1018.7 1018.5 1.2
29/04:00pm 17.6 15.0 12.1 70 3.0 SE 17 24 9 13 1018.6 1018.4 1.2
29/03:30pm 18.2 14.8 11.3 64 3.8 SE 20 32 11 17 1018.7 1018.5 1.2
29/03:00pm 19.2 16.1 11.7 62 4.1 SE 19 28 10 15 1018.8 1018.6 1.2
29/02:30pm 17.3 15.2 12.4 73 2.7 SSE 15 22 8 12 1019.3 1019.1 1.2
29/02:00pm 17.7 14.0 11.5 67 3.4 S 22 32 12 17 1019.3 1019.1 1.2
29/01:30pm 17.9 16.7 12.8 72 2.9 SSE 11 19 6 10 1019.5 1019.3 1.2
29/01:19pm 17.0 14.9 12.3 74 2.6 S 15 22 8 12 1019.6 1019.4 1.0
29/01:00pm 15.2 12.9 12.9 86 1.3 SSE 17 26 9 14 1020.0 1019.8 1.0
29/12:50pm 15.7 13.2 10.9 73 2.6 SE 15 28 8 15 1020.0 1019.8 0.6
29/12:30pm 17.6 15.8 12.1 70 3.0 SE 13 17 7 9 1019.9 1019.7 0.0
29/12:00pm 18.2 14.8 9.3 56 4.7 S 17 26 9 14 1019.8 1019.6 0.0

Other Formats:

Comma delimited format used in spreadsheet applications
http://www.bom.gov.au/fwo/IDV60801/IDV60801.94891.axf

JavaScript Object Notation format (JSON) in row-major order
http://www.bom.gov.au/fwo/IDV60801/IDV60801.94891.json